createdAt,value
2022-09-12T00:00:19.169Z,476.00
2022-09-12T00:00:49.245Z,478.00
2022-09-12T00:01:19.284Z,479.00
2022-09-12T00:01:49.380Z,479.00
2022-09-12T00:02:19.471Z,480.00
2022-09-12T00:02:49.492Z,478.00
2022-09-12T00:03:19.522Z,481.00
2022-09-12T00:03:49.552Z,481.00
2022-09-12T00:04:19.584Z,482.00
2022-09-12T00:04:49.614Z,482.00
2022-09-12T00:05:19.635Z,482.00
2022-09-12T00:05:49.672Z,481.00
2022-09-12T00:06:22.841Z,481.00
2022-09-12T00:06:49.805Z,481.00
2022-09-12T00:07:19.844Z,480.00
2022-09-12T00:07:49.875Z,479.00
2022-09-12T00:08:19.905Z,479.00
2022-09-12T00:08:50.024Z,480.00
2022-09-12T00:09:20.141Z,478.00
2022-09-12T00:09:50.138Z,477.00
2022-09-12T00:10:20.132Z,479.00
2022-09-12T00:10:50.129Z,480.00
2022-09-12T00:11:20.121Z,482.00
2022-09-12T00:11:50.263Z,482.00
2022-09-12T00:12:20.244Z,484.00
2022-09-12T00:12:50.248Z,484.00
2022-09-12T00:13:20.235Z,483.00
2022-09-12T00:13:50.358Z,484.00
2022-09-12T00:14:20.347Z,483.00
2022-09-12T00:14:50.463Z,482.00
2022-09-12T00:15:20.457Z,483.00
2022-09-12T00:15:50.454Z,484.00
2022-09-12T00:16:20.636Z,484.00
2022-09-12T00:16:50.647Z,485.00
2022-09-12T00:17:20.623Z,484.00
2022-09-12T00:17:50.743Z,485.00
2022-09-12T00:18:20.734Z,485.00
2022-09-12T00:18:50.773Z,484.00
2022-09-12T00:19:20.798Z,484.00
2022-09-12T00:19:50.827Z,483.00
2022-09-12T00:20:20.858Z,482.00
2022-09-12T00:20:50.896Z,482.00
2022-09-12T00:21:20.924Z,481.00
2022-09-12T00:21:50.959Z,480.00
2022-09-12T00:22:20.989Z,481.00
2022-09-12T00:22:51.032Z,481.00
2022-09-12T00:23:21.067Z,480.00
2022-09-12T00:23:51.097Z,480.00
2022-09-12T00:24:21.130Z,482.00
2022-09-12T00:24:51.156Z,480.00
2022-09-12T00:25:21.193Z,480.00
2022-09-12T00:25:51.225Z,481.00
2022-09-12T00:26:21.259Z,480.00
2022-09-12T00:26:51.291Z,478.00
2022-09-12T00:27:21.344Z,479.00
2022-09-12T00:27:51.356Z,481.00
2022-09-12T00:28:21.392Z,481.00
2022-09-12T00:28:51.423Z,480.00
2022-09-12T00:29:21.447Z,480.00
2022-09-12T00:29:51.482Z,480.00
2022-09-12T00:30:21.511Z,479.00
2022-09-12T00:30:51.557Z,478.00
2022-09-12T00:31:21.630Z,478.00
2022-09-12T00:31:51.699Z,478.00
2022-09-12T00:32:21.703Z,477.00
2022-09-12T00:32:51.748Z,477.00
2022-09-12T00:33:21.790Z,477.00
2022-09-12T00:33:51.817Z,476.00
2022-09-12T00:34:21.861Z,474.00
2022-09-12T00:34:51.897Z,474.00
2022-09-12T00:35:21.924Z,474.00
2022-09-12T00:35:51.954Z,474.00
2022-09-12T00:36:21.988Z,476.00
2022-09-12T00:36:52.020Z,476.00
2022-09-12T00:37:22.047Z,475.00
2022-09-12T00:37:52.083Z,476.00
2022-09-12T00:38:22.119Z,475.00
2022-09-12T00:38:52.151Z,476.00
2022-09-12T00:39:22.183Z,476.00
2022-09-12T00:39:52.266Z,478.00
2022-09-12T00:40:22.256Z,478.00
2022-09-12T00:40:52.297Z,479.00
2022-09-12T00:41:22.330Z,480.00
2022-09-12T00:41:52.360Z,481.00
2022-09-12T00:42:22.396Z,482.00
2022-09-12T00:42:52.455Z,480.00
2022-09-12T00:43:22.459Z,480.00
2022-09-12T00:43:52.491Z,480.00
2022-09-12T00:44:22.523Z,478.00
2022-09-12T00:44:52.552Z,478.00
2022-09-12T00:45:22.658Z,477.00
2022-09-12T00:45:52.692Z,477.00
2022-09-12T00:46:22.710Z,477.00
2022-09-12T00:46:52.745Z,478.00
2022-09-12T00:47:22.786Z,479.00
2022-09-12T00:47:52.816Z,479.00
2022-09-12T00:48:22.849Z,477.00
2022-09-12T00:48:52.882Z,476.00
2022-09-12T00:49:22.911Z,476.00
2022-09-12T00:49:52.952Z,476.00
2022-09-12T00:50:22.985Z,476.00
2022-09-12T00:50:53.012Z,478.00
2022-09-12T00:51:23.044Z,477.00
2022-09-12T00:51:53.078Z,477.00
2022-09-12T00:52:23.107Z,476.00
2022-09-12T00:52:53.140Z,474.00
2022-09-12T00:53:23.173Z,476.00
2022-09-12T00:53:53.202Z,477.00
2022-09-12T00:54:23.232Z,478.00
2022-09-12T00:54:53.269Z,478.00
2022-09-12T00:55:23.299Z,478.00
2022-09-12T00:55:53.330Z,478.00
2022-09-12T00:56:23.366Z,476.00
2022-09-12T00:56:53.395Z,477.00
2022-09-12T00:57:23.428Z,476.00
2022-09-12T00:57:53.463Z,474.00
2022-09-12T00:58:23.521Z,474.00
2022-09-12T00:58:53.529Z,474.00
2022-09-12T00:59:23.562Z,472.00
2022-09-12T00:59:53.591Z,472.00
2022-09-12T01:00:23.622Z,472.00
2022-09-12T01:00:53.756Z,472.00
2022-09-12T01:01:23.829Z,472.00
2022-09-12T01:01:53.869Z,472.00
2022-09-12T01:02:23.849Z,472.00
2022-09-12T01:02:53.868Z,474.00
2022-09-12T01:03:23.896Z,476.00
2022-09-12T01:03:53.929Z,477.00
2022-09-12T01:04:23.959Z,476.00
2022-09-12T01:04:53.986Z,477.00
2022-09-12T01:05:24.019Z,476.00
2022-09-12T01:05:54.051Z,477.00
2022-09-12T01:06:24.080Z,477.00
2022-09-12T01:06:54.113Z,477.00
2022-09-12T01:07:24.164Z,476.00
2022-09-12T01:07:54.195Z,477.00
2022-09-12T01:08:24.221Z,478.00
2022-09-12T01:08:54.341Z,479.00
2022-09-12T01:09:24.456Z,476.00
2022-09-12T01:09:54.453Z,477.00
2022-09-12T01:10:24.572Z,477.00
2022-09-12T01:10:54.692Z,478.00
2022-09-12T01:11:24.809Z,478.00
2022-09-12T01:11:54.926Z,480.00
2022-09-12T01:12:24.934Z,479.00
2022-09-12T01:12:54.925Z,478.00
2022-09-12T01:13:24.921Z,474.00
2022-09-12T01:13:55.059Z,473.00
2022-09-12T01:14:25.153Z,472.00
2022-09-12T01:14:55.150Z,471.00
2022-09-12T01:15:25.265Z,472.00
2022-09-12T01:15:55.383Z,472.00
2022-09-12T01:16:25.397Z,473.00
2022-09-12T01:16:55.495Z,471.00
2022-09-12T01:17:25.502Z,472.00
2022-09-12T01:17:55.490Z,472.00
2022-09-12T01:18:25.496Z,471.00
2022-09-12T01:18:55.520Z,470.00
2022-09-12T01:19:25.562Z,471.00
2022-09-12T01:19:55.587Z,470.00
2022-09-12T01:20:25.625Z,470.00
2022-09-12T01:20:55.659Z,471.00
2022-09-12T01:21:25.686Z,471.00
2022-09-12T01:21:55.720Z,471.00
2022-09-12T01:22:25.757Z,471.00
2022-09-12T01:22:55.793Z,473.00
2022-09-12T01:23:25.824Z,473.00
2022-09-12T01:23:55.868Z,472.00
2022-09-12T01:24:25.899Z,474.00
2022-09-12T01:24:55.935Z,474.00
2022-09-12T01:25:25.968Z,474.00
2022-09-12T01:25:55.998Z,474.00
2022-09-12T01:26:26.027Z,475.00
2022-09-12T01:26:56.060Z,475.00
2022-09-12T01:27:26.094Z,476.00
2022-09-12T01:27:56.130Z,475.00
2022-09-12T01:28:26.152Z,474.00
2022-09-12T01:28:56.181Z,473.00
2022-09-12T01:29:26.265Z,472.00
2022-09-12T01:29:56.278Z,471.00
2022-09-12T01:30:26.324Z,470.00
2022-09-12T01:30:56.349Z,470.00
2022-09-12T01:31:26.389Z,470.00
2022-09-12T01:31:56.471Z,470.00
2022-09-12T01:32:26.541Z,470.00
2022-09-12T01:32:56.554Z,471.00
2022-09-12T01:33:26.586Z,473.00
2022-09-12T01:33:56.614Z,473.00
2022-09-12T01:34:26.640Z,474.00
2022-09-12T01:34:56.671Z,474.00
2022-09-12T01:35:26.701Z,473.00
2022-09-12T01:35:56.738Z,471.00
2022-09-12T01:36:26.761Z,471.00
2022-09-12T01:36:56.795Z,471.00
2022-09-12T01:37:26.838Z,470.00
2022-09-12T01:37:56.871Z,470.00
2022-09-12T01:38:26.898Z,470.00
2022-09-12T01:38:56.931Z,468.00
2022-09-12T01:39:26.958Z,469.00
2022-09-12T01:39:56.994Z,468.00
2022-09-12T01:40:27.024Z,469.00
2022-09-12T01:40:57.057Z,469.00
2022-09-12T01:41:27.090Z,467.00
2022-09-12T01:41:57.133Z,467.00
2022-09-12T01:42:27.167Z,467.00
2022-09-12T01:42:57.199Z,468.00
2022-09-12T01:43:27.232Z,469.00
2022-09-12T01:43:57.258Z,468.00
2022-09-12T01:44:27.293Z,468.00
2022-09-12T01:44:57.352Z,470.00
2022-09-12T01:45:27.397Z,470.00
2022-09-12T01:45:57.446Z,470.00
2022-09-12T01:46:27.452Z,470.00
2022-09-12T01:46:57.479Z,470.00
2022-09-12T01:47:27.511Z,470.00
2022-09-12T01:47:57.552Z,469.00
2022-09-12T01:48:27.580Z,470.00
2022-09-12T01:48:57.612Z,469.00
2022-09-12T01:49:27.648Z,469.00
2022-09-12T01:49:57.677Z,468.00
2022-09-12T01:50:27.711Z,469.00
2022-09-12T01:50:57.745Z,471.00
2022-09-12T01:51:27.775Z,470.00
2022-09-12T01:51:57.806Z,468.00
2022-09-12T01:52:27.847Z,468.00
2022-09-12T01:52:57.877Z,469.00
2022-09-12T01:53:27.909Z,470.00
2022-09-12T01:53:57.940Z,470.00
2022-09-12T01:54:27.973Z,470.00
2022-09-12T01:54:58.009Z,470.00
2022-09-12T01:55:28.038Z,471.00
2022-09-12T01:55:58.076Z,470.00
2022-09-12T01:56:28.104Z,471.00
2022-09-12T01:56:58.135Z,471.00
2022-09-12T01:57:28.167Z,471.00
2022-09-12T01:57:58.202Z,471.00
2022-09-12T01:58:28.233Z,473.00
2022-09-12T01:58:58.263Z,472.00
2022-09-12T01:59:28.299Z,472.00
2022-09-12T01:59:58.330Z,472.00
2022-09-12T02:00:28.383Z,474.00
2022-09-12T02:00:58.437Z,475.00
2022-09-12T02:01:28.528Z,476.00
2022-09-12T02:01:58.675Z,477.00
2022-09-12T02:02:28.643Z,477.00
2022-09-12T02:02:58.595Z,477.00
2022-09-12T02:03:28.625Z,478.00
2022-09-12T02:03:58.687Z,477.00
2022-09-12T02:04:33.499Z,477.00
2022-09-12T02:04:58.774Z,477.00
2022-09-12T02:05:28.808Z,475.00
2022-09-12T02:05:58.842Z,476.00
2022-09-12T02:06:28.873Z,475.00
2022-09-12T02:06:58.908Z,475.00
2022-09-12T02:07:28.949Z,475.00
2022-09-12T02:07:58.994Z,476.00
2022-09-12T02:08:29.014Z,477.00
2022-09-12T02:08:59.161Z,478.00
2022-09-12T02:09:29.147Z,479.00
2022-09-12T02:09:59.265Z,479.00
2022-09-12T02:10:32.558Z,479.00
2022-09-12T02:10:59.380Z,479.00
2022-09-12T02:11:29.377Z,477.00
2022-09-12T02:11:59.369Z,476.00
2022-09-12T02:12:29.513Z,477.00
2022-09-12T02:12:59.500Z,476.00
2022-09-12T02:13:29.617Z,478.00
2022-09-12T02:13:59.727Z,479.00
2022-09-12T02:14:29.849Z,480.00
2022-09-12T02:14:59.967Z,480.00
2022-09-12T02:15:30.081Z,479.00
2022-09-12T02:16:00.218Z,478.00
2022-09-12T02:16:30.411Z,477.00
2022-09-12T02:17:00.388Z,478.00
2022-09-12T02:17:30.519Z,479.00
2022-09-12T02:18:00.514Z,479.00
2022-09-12T02:18:30.529Z,480.00
2022-09-12T02:19:00.553Z,481.00
2022-09-12T02:19:30.585Z,480.00
2022-09-12T02:20:00.616Z,479.00
2022-09-12T02:20:47.359Z,478.00
2022-09-12T02:21:00.689Z,480.00
2022-09-12T02:21:30.723Z,480.00
2022-09-12T02:22:00.749Z,479.00
2022-09-12T02:22:30.793Z,479.00
2022-09-12T02:23:00.824Z,478.00
2022-09-12T02:23:30.850Z,477.00
2022-09-12T02:24:00.883Z,479.00
2022-09-12T02:24:30.918Z,479.00
2022-09-12T02:25:00.948Z,481.00
2022-09-12T02:25:30.985Z,483.00
2022-09-12T02:26:01.012Z,483.00
2022-09-12T02:26:31.047Z,482.00
2022-09-12T02:27:01.073Z,482.00
2022-09-12T02:27:31.115Z,481.00
2022-09-12T02:28:01.140Z,481.00
2022-09-12T02:28:31.172Z,481.00
2022-09-12T02:29:01.202Z,481.00
2022-09-12T02:29:31.237Z,482.00
2022-09-12T02:30:01.287Z,483.00
2022-09-12T02:30:31.353Z,482.00
2022-09-12T02:31:01.475Z,482.00
2022-09-12T02:31:31.510Z,482.00
2022-09-12T02:32:01.513Z,481.00
2022-09-12T02:32:31.552Z,481.00
2022-09-12T02:33:01.588Z,482.00
2022-09-12T02:33:31.619Z,479.00
2022-09-12T02:34:01.647Z,480.00
2022-09-12T02:34:31.677Z,482.00
2022-09-12T02:35:01.715Z,482.00
2022-09-12T02:35:31.743Z,483.00
2022-09-12T02:36:01.775Z,482.00
2022-09-12T02:36:31.808Z,482.00
2022-09-12T02:37:01.842Z,482.00
2022-09-12T02:37:31.890Z,481.00
2022-09-12T02:38:01.922Z,482.00
2022-09-12T02:38:31.959Z,480.00
2022-09-12T02:39:01.992Z,480.00
2022-09-12T02:39:32.021Z,482.00
2022-09-12T02:40:02.129Z,479.00
2022-09-12T02:40:32.177Z,479.00
2022-09-12T02:41:02.197Z,480.00
2022-09-12T02:41:32.235Z,479.00
2022-09-12T02:42:02.263Z,479.00
2022-09-12T02:42:32.316Z,478.00
2022-09-12T02:43:02.356Z,478.00
2022-09-12T02:43:32.385Z,478.00
2022-09-12T02:44:02.413Z,478.00
2022-09-12T02:44:32.447Z,479.00
2022-09-12T02:45:02.476Z,480.00
2022-09-12T02:45:32.553Z,479.00
2022-09-12T02:46:02.653Z,479.00
2022-09-12T02:46:32.658Z,479.00
2022-09-12T02:47:02.716Z,479.00
2022-09-12T02:47:32.750Z,479.00
2022-09-12T02:48:02.781Z,479.00
2022-09-12T02:48:32.815Z,478.00
2022-09-12T02:49:02.845Z,479.00
2022-09-12T02:49:32.873Z,477.00
2022-09-12T02:50:02.902Z,478.00
2022-09-12T02:50:32.935Z,479.00
2022-09-12T02:51:02.964Z,478.00
2022-09-12T02:51:32.996Z,479.00
2022-09-12T02:52:03.027Z,480.00
2022-09-12T02:52:33.064Z,480.00
2022-09-12T02:53:03.090Z,480.00
2022-09-12T02:53:33.124Z,481.00
2022-09-12T02:54:03.157Z,481.00
2022-09-12T02:54:33.210Z,480.00
2022-09-12T02:55:03.246Z,478.00
2022-09-12T02:55:33.276Z,479.00
2022-09-12T02:56:03.316Z,479.00
2022-09-12T02:56:33.345Z,480.00
2022-09-12T02:57:03.375Z,481.00
2022-09-12T02:57:33.406Z,482.00
2022-09-12T02:58:03.444Z,483.00
2022-09-12T02:58:33.472Z,483.00
2022-09-12T02:59:03.505Z,483.00
2022-09-12T02:59:33.558Z,483.00
2022-09-12T03:00:03.593Z,483.00
2022-09-12T03:00:33.621Z,484.00
2022-09-12T03:01:03.707Z,482.00
2022-09-12T03:01:33.753Z,481.00
2022-09-12T03:02:03.868Z,481.00
2022-09-12T03:02:33.933Z,480.00
2022-09-12T03:03:03.947Z,478.00
2022-09-12T03:03:33.980Z,476.00
2022-09-12T03:04:04.011Z,473.00
2022-09-12T03:04:34.038Z,474.00
2022-09-12T03:05:04.081Z,473.00
2022-09-12T03:05:34.109Z,473.00
2022-09-12T03:06:04.149Z,475.00
2022-09-12T03:06:34.176Z,474.00
2022-09-12T03:07:04.207Z,475.00
2022-09-12T03:07:34.239Z,475.00
2022-09-12T03:08:04.276Z,475.00
2022-09-12T03:08:34.377Z,475.00
2022-09-12T03:09:04.366Z,475.00
2022-09-12T03:09:34.366Z,474.00
2022-09-12T03:10:04.479Z,474.00
2022-09-12T03:10:34.596Z,475.00
2022-09-12T03:11:04.599Z,477.00
2022-09-12T03:11:34.707Z,477.00
2022-09-12T03:12:04.707Z,478.00
2022-09-12T03:12:34.703Z,479.00
2022-09-12T03:13:04.822Z,478.00
2022-09-12T03:13:34.938Z,476.00
2022-09-12T03:14:04.942Z,476.00
2022-09-12T03:14:35.057Z,476.00
2022-09-12T03:15:05.169Z,475.00
2022-09-12T03:15:35.167Z,476.00
2022-09-12T03:16:05.197Z,476.00
2022-09-12T03:16:35.238Z,477.00
2022-09-12T03:17:05.241Z,476.00
2022-09-12T03:17:35.384Z,476.00
2022-09-12T03:18:05.354Z,477.00
2022-09-12T03:18:35.439Z,478.00
2022-09-12T03:19:05.458Z,479.00
2022-09-12T03:19:35.486Z,478.00
2022-09-12T03:20:05.524Z,478.00
2022-09-12T03:20:35.555Z,478.00
2022-09-12T03:21:05.589Z,477.00
2022-09-12T03:21:35.620Z,478.00
2022-09-12T03:22:05.665Z,478.00
2022-09-12T03:22:35.690Z,476.00
2022-09-12T03:23:05.745Z,476.00
2022-09-12T03:23:35.750Z,475.00
2022-09-12T03:24:05.777Z,477.00
2022-09-12T03:24:35.812Z,477.00
2022-09-12T03:25:05.840Z,479.00
2022-09-12T03:25:35.875Z,480.00
2022-09-12T03:26:05.910Z,482.00
2022-09-12T03:26:35.934Z,481.00
2022-09-12T03:27:05.968Z,479.00
2022-09-12T03:27:36.002Z,477.00
2022-09-12T03:28:06.038Z,477.00
2022-09-12T03:28:36.076Z,476.00
2022-09-12T03:29:06.112Z,475.00
2022-09-12T03:29:36.218Z,476.00
2022-09-12T03:30:06.217Z,477.00
2022-09-12T03:30:36.276Z,540.00
2022-09-12T03:31:06.336Z,496.00
2022-09-12T03:31:36.324Z,492.00
2022-09-12T03:32:06.357Z,491.00
2022-09-12T03:32:36.387Z,483.00
2022-09-12T03:33:06.444Z,488.00
2022-09-12T03:33:36.448Z,486.00
2022-09-12T03:34:06.471Z,485.00
2022-09-12T03:34:36.502Z,487.00
2022-09-12T03:35:06.552Z,492.00
2022-09-12T03:35:36.579Z,494.00
2022-09-12T03:36:06.609Z,496.00
2022-09-12T03:36:36.639Z,500.00
2022-09-12T03:37:06.662Z,501.00
2022-09-12T03:37:36.694Z,501.00
2022-09-12T03:38:06.725Z,500.00
2022-09-12T03:38:36.750Z,500.00
2022-09-12T03:39:06.784Z,502.00
2022-09-12T03:39:36.812Z,503.00
2022-09-12T03:40:06.905Z,503.00
2022-09-12T03:40:36.929Z,504.00
2022-09-12T03:41:06.961Z,502.00
2022-09-12T03:41:36.989Z,503.00
2022-09-12T03:42:07.025Z,503.00
2022-09-12T03:42:37.065Z,504.00
2022-09-12T03:43:07.088Z,504.00
2022-09-12T03:43:37.123Z,505.00
2022-09-12T03:44:07.151Z,506.00
2022-09-12T03:44:37.182Z,507.00
2022-09-12T03:45:07.214Z,509.00
2022-09-12T03:45:37.297Z,513.00
2022-09-12T03:46:07.374Z,515.00
2022-09-12T03:46:37.406Z,515.00
2022-09-12T03:47:11.137Z,516.00
2022-09-12T03:47:37.529Z,517.00
2022-09-12T03:48:07.553Z,518.00
2022-09-12T03:48:37.607Z,522.00
2022-09-12T03:49:07.611Z,524.00
2022-09-12T03:49:37.647Z,525.00
2022-09-12T03:50:07.683Z,524.00
2022-09-12T03:50:37.710Z,525.00
2022-09-12T03:51:07.753Z,527.00
2022-09-12T03:51:37.775Z,528.00
2022-09-12T03:52:07.805Z,529.00
2022-09-12T03:52:37.840Z,531.00
2022-09-12T03:53:07.865Z,532.00
2022-09-12T03:53:37.898Z,533.00
2022-09-12T03:54:07.924Z,533.00
2022-09-12T03:54:37.953Z,529.00
2022-09-12T03:55:07.983Z,530.00
2022-09-12T03:55:38.019Z,531.00
2022-09-12T03:56:08.044Z,532.00
2022-09-12T03:56:38.080Z,533.00
2022-09-12T03:57:08.112Z,532.00
2022-09-12T03:57:38.147Z,535.00
2022-09-12T03:58:08.183Z,536.00
2022-09-12T03:58:38.218Z,536.00
2022-09-12T03:59:08.241Z,537.00
2022-09-12T03:59:38.272Z,538.00
2022-09-12T04:00:08.307Z,539.00
2022-09-12T04:00:38.334Z,539.00
2022-09-12T04:01:08.421Z,538.00
2022-09-12T04:01:38.459Z,537.00
2022-09-12T04:02:08.516Z,536.00
2022-09-12T04:02:38.560Z,535.00
2022-09-12T04:03:08.596Z,537.00
2022-09-12T04:03:38.627Z,538.00
2022-09-12T04:04:08.680Z,539.00
2022-09-12T04:04:38.695Z,539.00
2022-09-12T04:05:08.721Z,543.00
2022-09-12T04:05:38.752Z,543.00
2022-09-12T04:06:08.784Z,541.00
2022-09-12T04:06:38.820Z,538.00
2022-09-12T04:07:08.857Z,537.00
2022-09-12T04:07:38.891Z,536.00
2022-09-12T04:08:08.919Z,538.00
2022-09-12T04:08:38.921Z,535.00
2022-09-12T04:09:09.040Z,535.00
2022-09-12T04:09:39.159Z,537.00
2022-09-12T04:10:11.939Z,537.00
2022-09-12T04:10:39.158Z,537.00
2022-09-12T04:11:09.271Z,533.00
2022-09-12T04:11:39.389Z,533.00
2022-09-12T04:12:09.507Z,531.00
2022-09-12T04:12:39.656Z,527.00
2022-09-12T04:13:09.620Z,526.00
2022-09-12T04:13:39.621Z,527.00
2022-09-12T04:14:09.612Z,526.00
2022-09-12T04:14:39.614Z,524.00
2022-09-12T04:15:09.732Z,525.00
2022-09-12T04:15:39.856Z,525.00
2022-09-12T04:16:09.873Z,523.00
2022-09-12T04:16:39.952Z,522.00
2022-09-12T04:17:09.979Z,518.00
2022-09-12T04:17:39.966Z,518.00
2022-09-12T04:18:10.086Z,517.00
2022-09-12T04:18:40.108Z,515.00
2022-09-12T04:19:10.135Z,512.00
2022-09-12T04:19:40.190Z,511.00
2022-09-12T04:20:10.203Z,509.00
2022-09-12T04:20:40.235Z,506.00
2022-09-12T04:21:10.268Z,505.00
2022-09-12T04:21:40.298Z,505.00
2022-09-12T04:22:10.330Z,504.00
2022-09-12T04:22:40.362Z,505.00
2022-09-12T04:23:10.392Z,506.00
2022-09-12T04:23:40.417Z,507.00
2022-09-12T04:24:10.456Z,506.00
2022-09-12T04:24:40.485Z,504.00
2022-09-12T04:25:10.516Z,500.00
2022-09-12T04:25:40.544Z,499.00
2022-09-12T04:26:10.580Z,497.00
2022-09-12T04:26:40.604Z,497.00
2022-09-12T04:27:10.636Z,496.00
2022-09-12T04:27:40.670Z,497.00
2022-09-12T04:28:10.705Z,495.00
2022-09-12T04:28:40.745Z,496.00
2022-09-12T04:29:10.788Z,496.00
2022-09-12T04:29:40.823Z,497.00
2022-09-12T04:30:10.859Z,503.00
2022-09-12T04:30:40.946Z,508.00
2022-09-12T04:31:10.936Z,511.00
2022-09-12T04:31:40.968Z,515.00
2022-09-12T04:32:11.001Z,517.00
2022-09-12T04:32:41.035Z,517.00
2022-09-12T04:33:11.073Z,517.00
2022-09-12T04:33:41.097Z,517.00
2022-09-12T04:34:11.125Z,520.00
2022-09-12T04:34:41.154Z,527.00
2022-09-12T04:35:11.213Z,529.00
2022-09-12T04:35:41.217Z,534.00
2022-09-12T04:36:11.256Z,534.00
2022-09-12T04:36:41.299Z,535.00
2022-09-12T04:37:11.328Z,541.00
2022-09-12T04:37:41.363Z,545.00
2022-09-12T04:38:11.393Z,542.00
2022-09-12T04:38:41.450Z,539.00
2022-09-12T04:39:11.481Z,540.00
2022-09-12T04:39:41.554Z,543.00
2022-09-12T04:40:11.676Z,542.00
2022-09-12T04:40:41.591Z,539.00
2022-09-12T04:41:11.621Z,540.00
2022-09-12T04:41:41.664Z,541.00
2022-09-12T04:42:11.697Z,542.00
2022-09-12T04:42:41.725Z,545.00
2022-09-12T04:43:14.511Z,547.00
2022-09-12T04:43:41.848Z,548.00
2022-09-12T04:44:11.879Z,550.00
2022-09-12T04:44:41.909Z,550.00
2022-09-12T04:45:11.944Z,552.00
2022-09-12T04:45:42.024Z,556.00
2022-09-12T04:46:12.125Z,555.00
2022-09-12T04:46:42.036Z,556.00
2022-09-12T04:47:12.064Z,555.00
2022-09-12T04:47:42.101Z,554.00
2022-09-12T04:48:12.132Z,555.00
2022-09-12T04:48:42.304Z,551.00
2022-09-12T04:49:12.187Z,551.00
2022-09-12T04:49:42.221Z,550.00
2022-09-12T04:50:12.253Z,552.00
2022-09-12T04:50:42.415Z,554.00
2022-09-12T04:51:12.304Z,552.00
2022-09-12T04:51:42.334Z,549.00
2022-09-12T04:52:12.364Z,545.00
2022-09-12T04:52:42.399Z,548.00
2022-09-12T04:53:12.432Z,545.00
2022-09-12T04:53:42.463Z,544.00
2022-09-12T04:54:12.494Z,542.00
2022-09-12T04:54:42.527Z,539.00
2022-09-12T04:55:12.561Z,539.00
2022-09-12T04:55:42.593Z,539.00
2022-09-12T04:56:12.619Z,541.00
2022-09-12T04:56:42.648Z,539.00
2022-09-12T04:57:12.681Z,535.00
2022-09-12T04:57:42.706Z,533.00
2022-09-12T04:58:12.741Z,533.00
2022-09-12T04:58:42.822Z,529.00
2022-09-12T04:59:12.819Z,525.00
2022-09-12T04:59:42.851Z,523.00
2022-09-12T05:00:12.886Z,521.00
2022-09-12T05:00:42.911Z,520.00
2022-09-12T05:01:13.036Z,517.00
2022-09-12T05:01:43.052Z,517.00
2022-09-12T05:02:13.114Z,515.00
2022-09-12T05:02:43.132Z,515.00
2022-09-12T05:03:13.160Z,514.00
2022-09-12T05:03:43.190Z,515.00
2022-09-12T05:04:13.229Z,516.00
2022-09-12T05:04:43.258Z,515.00
2022-09-12T05:05:13.295Z,514.00
2022-09-12T05:05:43.322Z,513.00
2022-09-12T05:06:13.377Z,512.00
2022-09-12T05:06:43.384Z,512.00
2022-09-12T05:07:13.417Z,510.00
2022-09-12T05:07:43.448Z,509.00
2022-09-12T05:08:13.478Z,508.00
2022-09-12T05:08:43.483Z,505.00
2022-09-12T05:09:13.468Z,506.00
2022-09-12T05:09:43.465Z,508.00
2022-09-12T05:10:13.587Z,505.00
2022-09-12T05:10:43.581Z,508.00
2022-09-12T05:11:13.580Z,504.00
2022-09-12T05:12:03.898Z,501.00
2022-09-12T05:12:13.607Z,502.00
2022-09-12T05:12:43.601Z,501.00
2022-09-12T05:13:13.606Z,502.00
2022-09-12T05:13:43.721Z,502.00
2022-09-12T05:14:13.838Z,501.00
2022-09-12T05:14:43.839Z,499.00
2022-09-12T05:15:13.948Z,499.00
2022-09-12T05:15:43.944Z,501.00
2022-09-12T05:16:13.995Z,502.00
2022-09-12T05:16:48.571Z,503.00
2022-09-12T05:17:13.979Z,503.00
2022-09-12T05:17:44.112Z,501.00
2022-09-12T05:18:14.099Z,502.00
2022-09-12T05:18:44.145Z,499.00
2022-09-12T05:19:14.165Z,499.00
2022-09-12T05:19:44.193Z,497.00
2022-09-12T05:20:14.221Z,497.00
2022-09-12T05:20:44.252Z,499.00
2022-09-12T05:21:14.279Z,498.00
2022-09-12T05:21:44.339Z,498.00
2022-09-12T05:22:14.349Z,497.00
2022-09-12T05:22:44.377Z,498.00
2022-09-12T05:23:14.413Z,499.00
2022-09-12T05:23:44.441Z,499.00
2022-09-12T05:24:14.464Z,499.00
2022-09-12T05:24:49.836Z,498.00
2022-09-12T05:25:14.549Z,498.00
2022-09-12T05:25:44.580Z,500.00
2022-09-12T05:26:14.612Z,501.00
2022-09-12T05:26:44.646Z,499.00
2022-09-12T05:27:14.671Z,500.00
2022-09-12T05:27:49.936Z,499.00
2022-09-12T05:28:14.772Z,499.00
2022-09-12T05:28:44.801Z,499.00
2022-09-12T05:29:14.834Z,500.00
2022-09-12T05:29:44.869Z,503.00
2022-09-12T05:30:14.900Z,508.00
2022-09-12T05:30:44.946Z,508.00
2022-09-12T05:31:14.980Z,506.00
2022-09-12T05:31:45.005Z,505.00
2022-09-12T05:32:15.048Z,504.00
2022-09-12T05:32:45.093Z,504.00
2022-09-12T05:33:15.127Z,505.00
2022-09-12T05:33:45.153Z,504.00
2022-09-12T05:34:15.186Z,504.00
2022-09-12T05:34:45.213Z,502.00
2022-09-12T05:35:15.245Z,504.00
2022-09-12T05:35:45.283Z,505.00
2022-09-12T05:36:15.316Z,502.00
2022-09-12T05:36:45.349Z,502.00
2022-09-12T05:37:15.407Z,502.00
2022-09-12T05:37:45.417Z,502.00
2022-09-12T05:38:15.448Z,501.00
2022-09-12T05:38:45.594Z,502.00
2022-09-12T05:39:15.537Z,504.00
2022-09-12T05:39:45.611Z,504.00
2022-09-12T05:40:15.651Z,503.00
2022-09-12T05:40:45.658Z,501.00
2022-09-12T05:41:18.954Z,502.00
2022-09-12T05:41:45.740Z,508.00
2022-09-12T05:42:15.770Z,527.00
2022-09-12T05:42:45.803Z,524.00
2022-09-12T05:43:15.839Z,529.00
2022-09-12T05:43:45.868Z,528.00
2022-09-12T05:44:15.921Z,528.00
2022-09-12T05:44:45.973Z,528.00
2022-09-12T05:45:16.007Z,525.00
2022-09-12T05:45:46.096Z,520.00
2022-09-12T05:46:16.110Z,525.00
2022-09-12T05:46:46.143Z,526.00
2022-09-12T05:47:16.175Z,524.00
2022-09-12T05:47:46.207Z,525.00
2022-09-12T05:48:16.241Z,524.00
2022-09-12T05:48:46.364Z,526.00
2022-09-12T05:49:16.325Z,531.00
2022-09-12T05:49:46.366Z,540.00
2022-09-12T05:50:16.394Z,540.00
2022-09-12T05:50:46.422Z,532.00
2022-09-12T05:51:16.466Z,528.00
2022-09-12T05:51:46.488Z,533.00
2022-09-12T05:52:16.518Z,534.00
2022-09-12T05:52:46.583Z,541.00
2022-09-12T05:53:16.595Z,543.00
2022-09-12T05:53:46.622Z,541.00
2022-09-12T05:54:16.660Z,540.00
2022-09-12T05:54:46.689Z,542.00
2022-09-12T05:55:16.721Z,542.00
2022-09-12T05:55:46.754Z,546.00
2022-09-12T05:56:16.782Z,549.00
2022-09-12T05:56:46.815Z,547.00
2022-09-12T05:57:16.855Z,547.00
2022-09-12T05:57:46.892Z,550.00
2022-09-12T05:58:16.928Z,551.00
2022-09-12T05:58:47.113Z,555.00
2022-09-12T05:59:17.031Z,555.00
2022-09-12T05:59:47.059Z,557.00
2022-09-12T06:00:17.091Z,558.00
2022-09-12T06:00:47.118Z,556.00
2022-09-12T06:01:17.187Z,558.00
2022-09-12T06:01:47.283Z,561.00
2022-09-12T06:02:17.243Z,561.00
2022-09-12T06:02:47.280Z,561.00
2022-09-12T06:03:17.313Z,559.00
2022-09-12T06:03:47.344Z,555.00
2022-09-12T06:04:17.382Z,555.00
2022-09-12T06:04:47.404Z,554.00
2022-09-12T06:05:17.437Z,555.00
2022-09-12T06:05:50.562Z,551.00
2022-09-12T06:06:17.474Z,550.00
2022-09-12T06:06:47.507Z,547.00
2022-09-12T06:07:17.540Z,545.00
2022-09-12T06:07:47.583Z,544.00
2022-09-12T06:08:17.635Z,544.00
2022-09-12T06:08:47.867Z,543.00
2022-09-12T06:09:17.741Z,540.00
2022-09-12T06:09:47.733Z,540.00
2022-09-12T06:10:17.850Z,545.00
2022-09-12T06:10:47.966Z,553.00
2022-09-12T06:11:18.086Z,554.00
2022-09-12T06:11:48.077Z,553.00
2022-09-12T06:12:18.194Z,551.00
2022-09-12T06:12:48.197Z,550.00
2022-09-12T06:13:18.191Z,550.00
2022-09-12T06:13:48.305Z,550.00
2022-09-12T06:14:18.421Z,547.00
2022-09-12T06:14:48.413Z,549.00